sensor_id;sensor_type;location;lat;lon;timestamp;P1;durP1;ratioP1;P2;durP2;ratioP2
13520;SDS011;6832;51.186;3.236;2023-04-08T00:00:32;57.03;;;8.73;;
13520;SDS011;6832;51.186;3.236;2023-04-08T00:03:00;25.73;;;6.17;;
13520;SDS011;6832;51.186;3.236;2023-04-08T00:05:27;30.30;;;6.43;;
13520;SDS011;6832;51.186;3.236;2023-04-08T00:07:54;48.40;;;7.93;;
13520;SDS011;6832;51.186;3.236;2023-04-08T00:10:21;52.93;;;8.17;;
13520;SDS011;6832;51.186;3.236;2023-04-08T00:12:49;24.97;;;5.87;;
13520;SDS011;6832;51.186;3.236;2023-04-08T00:15:16;39.73;;;7.23;;
13520;SDS011;6832;51.186;3.236;2023-04-08T00:17:43;55.37;;;8.77;;
13520;SDS011;6832;51.186;3.236;2023-04-08T00:20:11;45.27;;;7.83;;
13520;SDS011;6832;51.186;3.236;2023-04-08T00:22:38;28.27;;;6.33;;
13520;SDS011;6832;51.186;3.236;2023-04-08T00:25:06;33.90;;;6.97;;
13520;SDS011;6832;51.186;3.236;2023-04-08T00:27:33;28.10;;;6.00;;
13520;SDS011;6832;51.186;3.236;2023-04-08T00:30:00;38.90;;;6.67;;
13520;SDS011;6832;51.186;3.236;2023-04-08T00:32:27;66.87;;;9.40;;
13520;SDS011;6832;51.186;3.236;2023-04-08T00:34:54;33.20;;;6.70;;
13520;SDS011;6832;51.186;3.236;2023-04-08T00:37:22;29.57;;;6.77;;
13520;SDS011;6832;51.186;3.236;2023-04-08T00:39:50;64.70;;;9.43;;
13520;SDS011;6832;51.186;3.236;2023-04-08T00:42:18;39.33;;;7.50;;
13520;SDS011;6832;51.186;3.236;2023-04-08T00:44:46;35.60;;;6.50;;
13520;SDS011;6832;51.186;3.236;2023-04-08T00:47:13;50.97;;;8.43;;
13520;SDS011;6832;51.186;3.236;2023-04-08T00:49:41;32.80;;;6.37;;
13520;SDS011;6832;51.186;3.236;2023-04-08T00:52:08;32.87;;;6.77;;
13520;SDS011;6832;51.186;3.236;2023-04-08T00:54:37;30.70;;;6.37;;
13520;SDS011;6832;51.186;3.236;2023-04-08T00:57:04;31.93;;;6.40;;
13520;SDS011;6832;51.186;3.236;2023-04-08T00:59:31;26.90;;;6.27;;
13520;SDS011;6832;51.186;3.236;2023-04-08T01:02:03;27.17;;;6.33;;
13520;SDS011;6832;51.186;3.236;2023-04-08T01:04:39;24.33;;;6.07;;
13520;SDS011;6832;51.186;3.236;2023-04-08T01:07:12;27.90;;;5.97;;
13520;SDS011;6832;51.186;3.236;2023-04-08T01:09:46;28.03;;;6.23;;
13520;SDS011;6832;51.186;3.236;2023-04-08T01:12:19;26.97;;;6.30;;
13520;SDS011;6832;51.186;3.236;2023-04-08T01:14:53;30.97;;;6.70;;
13520;SDS011;6832;51.186;3.236;2023-04-08T01:17:24;24.87;;;6.23;;
13520;SDS011;6832;51.186;3.236;2023-04-08T01:19:51;28.27;;;6.53;;
13520;SDS011;6832;51.186;3.236;2023-04-08T01:22:22;42.40;;;7.60;;
13520;SDS011;6832;51.186;3.236;2023-04-08T01:25:00;30.23;;;6.80;;
13520;SDS011;6832;51.186;3.236;2023-04-08T01:27:33;50.97;;;7.93;;
13520;SDS011;6832;51.186;3.236;2023-04-08T01:30:01;33.47;;;6.27;;
13520;SDS011;6832;51.186;3.236;2023-04-08T01:32:29;43.67;;;7.37;;
13520;SDS011;6832;51.186;3.236;2023-04-08T01:34:58;33.90;;;6.53;;
13520;SDS011;6832;51.186;3.236;2023-04-08T01:37:27;28.47;;;6.53;;
13520;SDS011;6832;51.186;3.236;2023-04-08T01:39:54;29.93;;;6.47;;
13520;SDS011;6832;51.186;3.236;2023-04-08T01:42:23;25.90;;;6.27;;
13520;SDS011;6832;51.186;3.236;2023-04-08T01:44:53;30.27;;;6.77;;
13520;SDS011;6832;51.186;3.236;2023-04-08T01:47:23;24.77;;;6.10;;
13520;SDS011;6832;51.186;3.236;2023-04-08T01:49:50;32.70;;;6.27;;
13520;SDS011;6832;51.186;3.236;2023-04-08T01:52:19;25.00;;;5.67;;
13520;SDS011;6832;51.186;3.236;2023-04-08T01:54:47;31.20;;;6.37;;
13520;SDS011;6832;51.186;3.236;2023-04-08T01:57:15;39.73;;;6.53;;
13520;SDS011;6832;51.186;3.236;2023-04-08T01:59:49;46.00;;;7.67;;
13520;SDS011;6832;51.186;3.236;2023-04-08T02:02:22;31.83;;;6.23;;
13520;SDS011;6832;51.186;3.236;2023-04-08T02:04:52;26.80;;;6.20;;
13520;SDS011;6832;51.186;3.236;2023-04-08T02:07:19;63.07;;;9.27;;
13520;SDS011;6832;51.186;3.236;2023-04-08T02:09:46;32.73;;;6.60;;
13520;SDS011;6832;51.186;3.236;2023-04-08T02:12:13;24.70;;;6.00;;
13520;SDS011;6832;51.186;3.236;2023-04-08T02:14:40;22.80;;;5.63;;
13520;SDS011;6832;51.186;3.236;2023-04-08T02:17:09;41.37;;;7.03;;
13520;SDS011;6832;51.186;3.236;2023-04-08T02:19:40;26.83;;;6.87;;
13520;SDS011;6832;51.186;3.236;2023-04-08T02:22:16;28.87;;;6.07;;
13520;SDS011;6832;51.186;3.236;2023-04-08T02:24:44;31.07;;;6.03;;
13520;SDS011;6832;51.186;3.236;2023-04-08T02:27:12;27.43;;;6.30;;
13520;SDS011;6832;51.186;3.236;2023-04-08T02:29:40;24.93;;;5.57;;
13520;SDS011;6832;51.186;3.236;2023-04-08T02:32:09;34.67;;;6.57;;
13520;SDS011;6832;51.186;3.236;2023-04-08T02:34:37;29.27;;;6.27;;
13520;SDS011;6832;51.186;3.236;2023-04-08T02:37:06;31.73;;;6.20;;
13520;SDS011;6832;51.186;3.236;2023-04-08T02:39:33;34.03;;;6.67;;
13520;SDS011;6832;51.186;3.236;2023-04-08T02:42:00;25.40;;;6.23;;
13520;SDS011;6832;51.186;3.236;2023-04-08T02:44:29;40.20;;;7.20;;
13520;SDS011;6832;51.186;3.236;2023-04-08T02:46:55;52.83;;;8.03;;
13520;SDS011;6832;51.186;3.236;2023-04-08T02:49:24;37.97;;;6.83;;
13520;SDS011;6832;51.186;3.236;2023-04-08T02:51:51;22.40;;;5.73;;
13520;SDS011;6832;51.186;3.236;2023-04-08T02:54:17;52.87;;;7.93;;
13520;SDS011;6832;51.186;3.236;2023-04-08T02:56:44;23.77;;;6.40;;
13520;SDS011;6832;51.186;3.236;2023-04-08T02:59:11;35.63;;;6.80;;
13520;SDS011;6832;51.186;3.236;2023-04-08T03:01:38;22.37;;;5.47;;
13520;SDS011;6832;51.186;3.236;2023-04-08T03:04:05;31.67;;;5.70;;
13520;SDS011;6832;51.186;3.236;2023-04-08T03:06:33;26.97;;;5.80;;
13520;SDS011;6832;51.186;3.236;2023-04-08T03:09:00;46.67;;;7.60;;
13520;SDS011;6832;51.186;3.236;2023-04-08T03:11:27;47.17;;;7.40;;
13520;SDS011;6832;51.186;3.236;2023-04-08T03:13:54;32.20;;;6.67;;
13520;SDS011;6832;51.186;3.236;2023-04-08T03:16:20;65.80;;;9.33;;
13520;SDS011;6832;51.186;3.236;2023-04-08T03:18:48;27.00;;;6.27;;
13520;SDS011;6832;51.186;3.236;2023-04-08T03:21:15;27.87;;;6.10;;
13520;SDS011;6832;51.186;3.236;2023-04-08T03:23:43;21.30;;;5.87;;
13520;SDS011;6832;51.186;3.236;2023-04-08T03:26:10;33.20;;;6.73;;
13520;SDS011;6832;51.186;3.236;2023-04-08T03:28:37;27.67;;;6.03;;
13520;SDS011;6832;51.186;3.236;2023-04-08T03:31:04;25.63;;;6.07;;
13520;SDS011;6832;51.186;3.236;2023-04-08T03:33:31;27.70;;;5.80;;
13520;SDS011;6832;51.186;3.236;2023-04-08T03:35:58;26.70;;;5.87;;
13520;SDS011;6832;51.186;3.236;2023-04-08T03:38:25;36.53;;;6.63;;
13520;SDS011;6832;51.186;3.236;2023-04-08T03:40:53;36.40;;;6.87;;
13520;SDS011;6832;51.186;3.236;2023-04-08T03:43:20;28.33;;;5.90;;
13520;SDS011;6832;51.186;3.236;2023-04-08T03:45:46;26.47;;;5.73;;
13520;SDS011;6832;51.186;3.236;2023-04-08T03:48:13;27.17;;;6.03;;
13520;SDS011;6832;51.186;3.236;2023-04-08T03:50:40;27.13;;;6.07;;
13520;SDS011;6832;51.186;3.236;2023-04-08T03:53:07;22.67;;;5.40;;
13520;SDS011;6832;51.186;3.236;2023-04-08T03:55:37;23.50;;;5.80;;
13520;SDS011;6832;51.186;3.236;2023-04-08T03:58:05;26.00;;;6.03;;
13520;SDS011;6832;51.186;3.236;2023-04-08T04:00:32;24.03;;;6.17;;
13520;SDS011;6832;51.186;3.236;2023-04-08T04:03:00;23.70;;;5.60;;
13520;SDS011;6832;51.186;3.236;2023-04-08T04:05:27;43.00;;;7.27;;
13520;SDS011;6832;51.186;3.236;2023-04-08T04:07:54;24.70;;;5.47;;
13520;SDS011;6832;51.186;3.236;2023-04-08T04:10:22;32.97;;;6.57;;
13520;SDS011;6832;51.186;3.236;2023-04-08T04:12:49;25.73;;;5.67;;
13520;SDS011;6832;51.186;3.236;2023-04-08T04:15:17;27.20;;;6.00;;
13520;SDS011;6832;51.186;3.236;2023-04-08T04:17:46;28.77;;;6.37;;
13520;SDS011;6832;51.186;3.236;2023-04-08T04:20:14;39.20;;;6.93;;
13520;SDS011;6832;51.186;3.236;2023-04-08T04:22:41;25.37;;;6.03;;
13520;SDS011;6832;51.186;3.236;2023-04-08T04:25:08;24.53;;;5.53;;
13520;SDS011;6832;51.186;3.236;2023-04-08T04:27:35;32.13;;;6.37;;
13520;SDS011;6832;51.186;3.236;2023-04-08T04:30:03;23.83;;;5.93;;
13520;SDS011;6832;51.186;3.236;2023-04-08T04:32:32;44.70;;;7.30;;
13520;SDS011;6832;51.186;3.236;2023-04-08T04:34:59;23.03;;;6.07;;
13520;SDS011;6832;51.186;3.236;2023-04-08T04:37:26;28.70;;;6.30;;
13520;SDS011;6832;51.186;3.236;2023-04-08T04:39:53;23.70;;;5.63;;
13520;SDS011;6832;51.186;3.236;2023-04-08T04:42:20;22.90;;;5.97;;
13520;SDS011;6832;51.186;3.236;2023-04-08T04:44:47;18.17;;;5.13;;
13520;SDS011;6832;51.186;3.236;2023-04-08T04:47:14;24.37;;;5.70;;
13520;SDS011;6832;51.186;3.236;2023-04-08T04:49:42;32.73;;;6.73;;
13520;SDS011;6832;51.186;3.236;2023-04-08T04:52:09;30.60;;;6.87;;
13520;SDS011;6832;51.186;3.236;2023-04-08T04:54:36;30.03;;;6.23;;
13520;SDS011;6832;51.186;3.236;2023-04-08T04:57:03;26.63;;;6.30;;
13520;SDS011;6832;51.186;3.236;2023-04-08T04:59:30;27.53;;;6.17;;
13520;SDS011;6832;51.186;3.236;2023-04-08T05:01:57;48.53;;;7.90;;
13520;SDS011;6832;51.186;3.236;2023-04-08T05:04:24;28.10;;;6.17;;
13520;SDS011;6832;51.186;3.236;2023-04-08T05:06:55;26.60;;;6.00;;
13520;SDS011;6832;51.186;3.236;2023-04-08T05:09:24;25.17;;;5.70;;
13520;SDS011;6832;51.186;3.236;2023-04-08T05:11:51;29.10;;;6.03;;
13520;SDS011;6832;51.186;3.236;2023-04-08T05:14:18;27.53;;;5.83;;
13520;SDS011;6832;51.186;3.236;2023-04-08T05:16:45;26.77;;;6.30;;
13520;SDS011;6832;51.186;3.236;2023-04-08T05:19:12;22.47;;;5.73;;
13520;SDS011;6832;51.186;3.236;2023-04-08T05:21:39;60.83;;;8.73;;
13520;SDS011;6832;51.186;3.236;2023-04-08T05:24:07;25.03;;;5.90;;
13520;SDS011;6832;51.186;3.236;2023-04-08T05:26:35;32.53;;;6.33;;
13520;SDS011;6832;51.186;3.236;2023-04-08T05:29:02;28.67;;;5.93;;
13520;SDS011;6832;51.186;3.236;2023-04-08T05:31:29;33.03;;;6.70;;
13520;SDS011;6832;51.186;3.236;2023-04-08T05:33:56;57.23;;;8.73;;
13520;SDS011;6832;51.186;3.236;2023-04-08T05:36:23;30.53;;;6.43;;
13520;SDS011;6832;51.186;3.236;2023-04-08T05:38:50;27.60;;;6.13;;
13520;SDS011;6832;51.186;3.236;2023-04-08T05:41:18;28.30;;;6.23;;
13520;SDS011;6832;51.186;3.236;2023-04-08T05:43:45;31.57;;;6.53;;
13520;SDS011;6832;51.186;3.236;2023-04-08T05:46:12;34.47;;;6.63;;
13520;SDS011;6832;51.186;3.236;2023-04-08T05:48:39;50.70;;;8.13;;
13520;SDS011;6832;51.186;3.236;2023-04-08T05:51:06;27.93;;;5.87;;
13520;SDS011;6832;51.186;3.236;2023-04-08T05:53:38;33.57;;;6.50;;
13520;SDS011;6832;51.186;3.236;2023-04-08T05:56:05;34.70;;;6.77;;
13520;SDS011;6832;51.186;3.236;2023-04-08T05:58:33;29.30;;;6.00;;
13520;SDS011;6832;51.186;3.236;2023-04-08T06:01:00;32.30;;;6.73;;
13520;SDS011;6832;51.186;3.236;2023-04-08T06:03:26;30.30;;;6.27;;
13520;SDS011;6832;51.186;3.236;2023-04-08T06:05:55;29.60;;;6.13;;
13520;SDS011;6832;51.186;3.236;2023-04-08T06:08:22;34.57;;;7.10;;
13520;SDS011;6832;51.186;3.236;2023-04-08T06:10:49;36.47;;;6.70;;
13520;SDS011;6832;51.186;3.236;2023-04-08T06:13:16;43.23;;;7.20;;
13520;SDS011;6832;51.186;3.236;2023-04-08T06:15:46;56.67;;;8.27;;
13520;SDS011;6832;51.186;3.236;2023-04-08T06:18:14;49.47;;;8.23;;
13520;SDS011;6832;51.186;3.236;2023-04-08T06:20:41;51.57;;;7.97;;
13520;SDS011;6832;51.186;3.236;2023-04-08T06:23:08;32.60;;;6.63;;
13520;SDS011;6832;51.186;3.236;2023-04-08T06:25:35;26.97;;;6.20;;
13520;SDS011;6832;51.186;3.236;2023-04-08T06:28:02;35.80;;;7.13;;
13520;SDS011;6832;51.186;3.236;2023-04-08T06:30:29;53.43;;;8.23;;
13520;SDS011;6832;51.186;3.236;2023-04-08T06:32:57;27.13;;;5.77;;
13520;SDS011;6832;51.186;3.236;2023-04-08T06:35:24;30.30;;;6.13;;
13520;SDS011;6832;51.186;3.236;2023-04-08T06:37:51;30.70;;;6.47;;
13520;SDS011;6832;51.186;3.236;2023-04-08T06:40:18;33.53;;;6.80;;
13520;SDS011;6832;51.186;3.236;2023-04-08T06:42:45;32.43;;;6.00;;
13520;SDS011;6832;51.186;3.236;2023-04-08T06:45:12;67.13;;;9.30;;
13520;SDS011;6832;51.186;3.236;2023-04-08T06:47:39;25.43;;;5.90;;
13520;SDS011;6832;51.186;3.236;2023-04-08T06:50:08;25.00;;;6.30;;
13520;SDS011;6832;51.186;3.236;2023-04-08T06:52:35;49.80;;;8.17;;
13520;SDS011;6832;51.186;3.236;2023-04-08T06:55:02;21.37;;;4.80;;
13520;SDS011;6832;51.186;3.236;2023-04-08T06:57:30;34.03;;;6.93;;
13520;SDS011;6832;51.186;3.236;2023-04-08T06:59:57;27.07;;;6.10;;
13520;SDS011;6832;51.186;3.236;2023-04-08T07:02:24;33.20;;;6.67;;
13520;SDS011;6832;51.186;3.236;2023-04-08T07:04:51;24.33;;;5.87;;
13520;SDS011;6832;51.186;3.236;2023-04-08T07:07:20;31.37;;;6.03;;
13520;SDS011;6832;51.186;3.236;2023-04-08T07:09:48;31.07;;;6.20;;
13520;SDS011;6832;51.186;3.236;2023-04-08T07:12:15;34.90;;;6.40;;
13520;SDS011;6832;51.186;3.236;2023-04-08T07:14:42;26.20;;;6.17;;
13520;SDS011;6832;51.186;3.236;2023-04-08T07:17:09;23.33;;;5.77;;
13520;SDS011;6832;51.186;3.236;2023-04-08T07:19:36;27.40;;;5.90;;
13520;SDS011;6832;51.186;3.236;2023-04-08T07:22:03;35.90;;;6.57;;
13520;SDS011;6832;51.186;3.236;2023-04-08T07:24:31;25.47;;;5.97;;
13520;SDS011;6832;51.186;3.236;2023-04-08T07:26:58;29.80;;;6.30;;
13520;SDS011;6832;51.186;3.236;2023-04-08T07:29:25;32.23;;;6.57;;
13520;SDS011;6832;51.186;3.236;2023-04-08T07:31:52;37.10;;;6.77;;
13520;SDS011;6832;51.186;3.236;2023-04-08T07:34:19;36.90;;;6.87;;
13520;SDS011;6832;51.186;3.236;2023-04-08T07:36:46;34.20;;;6.73;;
13520;SDS011;6832;51.186;3.236;2023-04-08T07:39:12;47.17;;;7.43;;
13520;SDS011;6832;51.186;3.236;2023-04-08T07:41:41;36.83;;;6.77;;
13520;SDS011;6832;51.186;3.236;2023-04-08T07:44:07;46.87;;;7.93;;
13520;SDS011;6832;51.186;3.236;2023-04-08T07:46:35;51.80;;;8.20;;
13520;SDS011;6832;51.186;3.236;2023-04-08T07:49:03;37.50;;;6.70;;
13520;SDS011;6832;51.186;3.236;2023-04-08T07:51:29;35.27;;;6.87;;
13520;SDS011;6832;51.186;3.236;2023-04-08T07:53:56;31.93;;;6.53;;
13520;SDS011;6832;51.186;3.236;2023-04-08T07:56:23;32.17;;;6.83;;
13520;SDS011;6832;51.186;3.236;2023-04-08T07:58:51;42.93;;;7.70;;
13520;SDS011;6832;51.186;3.236;2023-04-08T08:01:19;36.60;;;7.17;;
13520;SDS011;6832;51.186;3.236;2023-04-08T08:03:46;31.83;;;7.30;;
13520;SDS011;6832;51.186;3.236;2023-04-08T08:06:14;33.83;;;6.30;;
13520;SDS011;6832;51.186;3.236;2023-04-08T08:08:41;23.90;;;5.60;;
13520;SDS011;6832;51.186;3.236;2023-04-08T08:11:08;22.93;;;5.77;;
13520;SDS011;6832;51.186;3.236;2023-04-08T08:13:35;27.43;;;6.47;;
13520;SDS011;6832;51.186;3.236;2023-04-08T08:16:04;29.37;;;6.17;;
13520;SDS011;6832;51.186;3.236;2023-04-08T08:18:32;36.63;;;6.87;;
13520;SDS011;6832;51.186;3.236;2023-04-08T08:21:00;25.43;;;5.93;;
13520;SDS011;6832;51.186;3.236;2023-04-08T08:23:27;42.37;;;7.70;;
13520;SDS011;6832;51.186;3.236;2023-04-08T08:25:58;36.47;;;7.27;;
13520;SDS011;6832;51.186;3.236;2023-04-08T08:28:25;36.87;;;6.77;;
13520;SDS011;6832;51.186;3.236;2023-04-08T08:30:52;18.57;;;5.80;;
13520;SDS011;6832;51.186;3.236;2023-04-08T08:33:20;42.97;;;8.00;;
13520;SDS011;6832;51.186;3.236;2023-04-08T08:35:47;55.83;;;9.40;;
13520;SDS011;6832;51.186;3.236;2023-04-08T08:38:14;32.70;;;7.13;;
13520;SDS011;6832;51.186;3.236;2023-04-08T08:40:43;34.63;;;7.47;;
13520;SDS011;6832;51.186;3.236;2023-04-08T08:43:10;33.53;;;7.03;;
13520;SDS011;6832;51.186;3.236;2023-04-08T08:45:38;80.97;;;11.10;;
13520;SDS011;6832;51.186;3.236;2023-04-08T08:48:05;44.97;;;8.20;;
13520;SDS011;6832;51.186;3.236;2023-04-08T08:50:34;36.77;;;7.03;;
13520;SDS011;6832;51.186;3.236;2023-04-08T08:53:02;75.37;;;10.77;;
13520;SDS011;6832;51.186;3.236;2023-04-08T08:55:29;37.70;;;7.53;;
13520;SDS011;6832;51.186;3.236;2023-04-08T08:57:58;53.30;;;8.80;;
13520;SDS011;6832;51.186;3.236;2023-04-08T09:00:31;44.37;;;7.37;;
13520;SDS011;6832;51.186;3.236;2023-04-08T09:05:47;41.17;;;7.50;;
13520;SDS011;6832;51.186;3.236;2023-04-08T09:08:24;43.30;;;7.17;;
13520;SDS011;6832;51.186;3.236;2023-04-08T09:10:56;55.90;;;8.87;;
13520;SDS011;6832;51.186;3.236;2023-04-08T09:13:36;34.97;;;6.60;;
13520;SDS011;6832;51.186;3.236;2023-04-08T09:16:04;40.77;;;7.23;;
13520;SDS011;6832;51.186;3.236;2023-04-08T09:18:35;86.27;;;10.87;;
13520;SDS011;6832;51.186;3.236;2023-04-08T09:21:04;39.27;;;7.20;;
13520;SDS011;6832;51.186;3.236;2023-04-08T09:23:39;72.30;;;10.13;;
13520;SDS011;6832;51.186;3.236;2023-04-08T09:26:08;39.00;;;7.53;;
13520;SDS011;6832;51.186;3.236;2023-04-08T09:28:35;42.77;;;7.93;;
13520;SDS011;6832;51.186;3.236;2023-04-08T09:31:18;36.73;;;7.07;;
13520;SDS011;6832;51.186;3.236;2023-04-08T09:33:46;43.00;;;8.00;;
13520;SDS011;6832;51.186;3.236;2023-04-08T09:36:15;52.07;;;8.63;;
13520;SDS011;6832;51.186;3.236;2023-04-08T09:38:43;42.53;;;8.30;;
13520;SDS011;6832;51.186;3.236;2023-04-08T09:41:11;29.17;;;6.90;;
13520;SDS011;6832;51.186;3.236;2023-04-08T09:43:43;35.47;;;7.83;;
13520;SDS011;6832;51.186;3.236;2023-04-08T09:46:14;54.67;;;9.53;;
13520;SDS011;6832;51.186;3.236;2023-04-08T09:48:48;32.17;;;7.00;;
13520;SDS011;6832;51.186;3.236;2023-04-08T09:51:18;52.83;;;8.33;;
13520;SDS011;6832;51.186;3.236;2023-04-08T09:53:49;64.47;;;9.77;;
13520;SDS011;6832;51.186;3.236;2023-04-08T09:56:21;35.33;;;7.13;;
13520;SDS011;6832;51.186;3.236;2023-04-08T09:58:50;34.50;;;7.17;;
13520;SDS011;6832;51.186;3.236;2023-04-08T10:01:23;45.67;;;8.23;;
13520;SDS011;6832;51.186;3.236;2023-04-08T10:03:54;41.03;;;7.50;;
13520;SDS011;6832;51.186;3.236;2023-04-08T10:06:26;38.63;;;7.37;;
13520;SDS011;6832;51.186;3.236;2023-04-08T10:08:55;45.60;;;8.07;;
13520;SDS011;6832;51.186;3.236;2023-04-08T10:11:23;38.03;;;7.63;;
13520;SDS011;6832;51.186;3.236;2023-04-08T10:13:50;37.40;;;7.53;;
13520;SDS011;6832;51.186;3.236;2023-04-08T10:16:18;45.40;;;8.07;;
13520;SDS011;6832;51.186;3.236;2023-04-08T10:18:49;37.90;;;8.10;;
13520;SDS011;6832;51.186;3.236;2023-04-08T10:21:37;35.83;;;7.40;;
13520;SDS011;6832;51.186;3.236;2023-04-08T10:24:07;38.57;;;7.30;;
13520;SDS011;6832;51.186;3.236;2023-04-08T10:26:36;38.70;;;8.17;;
13520;SDS011;6832;51.186;3.236;2023-04-08T10:31:56;38.10;;;7.67;;
13520;SDS011;6832;51.186;3.236;2023-04-08T10:34:24;36.70;;;7.00;;
13520;SDS011;6832;51.186;3.236;2023-04-08T10:36:53;37.93;;;7.37;;
13520;SDS011;6832;51.186;3.236;2023-04-08T10:39:23;32.43;;;6.97;;
13520;SDS011;6832;51.186;3.236;2023-04-08T10:41:52;56.63;;;8.90;;
13520;SDS011;6832;51.186;3.236;2023-04-08T10:44:20;34.60;;;7.47;;
13520;SDS011;6832;51.186;3.236;2023-04-08T10:46:48;35.20;;;7.23;;
13520;SDS011;6832;51.186;3.236;2023-04-08T10:49:19;31.83;;;7.57;;
13520;SDS011;6832;51.186;3.236;2023-04-08T10:51:47;33.73;;;6.90;;
13520;SDS011;6832;51.186;3.236;2023-04-08T10:54:15;42.63;;;8.13;;
13520;SDS011;6832;51.186;3.236;2023-04-08T10:56:43;32.40;;;6.70;;
13520;SDS011;6832;51.186;3.236;2023-04-08T10:59:12;35.60;;;7.97;;
13520;SDS011;6832;51.186;3.236;2023-04-08T11:01:41;32.73;;;7.43;;
13520;SDS011;6832;51.186;3.236;2023-04-08T11:04:15;34.23;;;7.13;;
13520;SDS011;6832;51.186;3.236;2023-04-08T11:06:44;48.30;;;8.43;;
13520;SDS011;6832;51.186;3.236;2023-04-08T11:09:13;49.17;;;8.13;;
13520;SDS011;6832;51.186;3.236;2023-04-08T11:11:43;46.03;;;7.80;;
13520;SDS011;6832;51.186;3.236;2023-04-08T11:14:13;39.67;;;7.50;;
13520;SDS011;6832;51.186;3.236;2023-04-08T11:16:43;54.87;;;9.00;;
13520;SDS011;6832;51.186;3.236;2023-04-08T11:19:11;42.90;;;7.87;;
13520;SDS011;6832;51.186;3.236;2023-04-08T11:21:42;37.50;;;7.53;;
13520;SDS011;6832;51.186;3.236;2023-04-08T11:24:09;43.47;;;7.57;;
13520;SDS011;6832;51.186;3.236;2023-04-08T11:26:39;37.73;;;8.20;;
13520;SDS011;6832;51.186;3.236;2023-04-08T11:29:09;38.13;;;8.10;;
13520;SDS011;6832;51.186;3.236;2023-04-08T11:31:40;44.00;;;7.77;;
13520;SDS011;6832;51.186;3.236;2023-04-08T11:34:11;43.93;;;7.97;;
13520;SDS011;6832;51.186;3.236;2023-04-08T11:36:48;35.03;;;7.60;;
13520;SDS011;6832;51.186;3.236;2023-04-08T11:39:15;32.90;;;7.50;;
13520;SDS011;6832;51.186;3.236;2023-04-08T11:41:42;33.53;;;7.40;;
13520;SDS011;6832;51.186;3.236;2023-04-08T11:44:13;29.03;;;7.00;;
13520;SDS011;6832;51.186;3.236;2023-04-08T11:46:41;36.47;;;7.70;;
13520;SDS011;6832;51.186;3.236;2023-04-08T11:49:19;38.87;;;8.10;;
13520;SDS011;6832;51.186;3.236;2023-04-08T11:51:55;39.17;;;7.93;;
13520;SDS011;6832;51.186;3.236;2023-04-08T11:54:27;38.07;;;7.90;;
13520;SDS011;6832;51.186;3.236;2023-04-08T11:56:55;55.07;;;9.37;;
13520;SDS011;6832;51.186;3.236;2023-04-08T11:59:24;47.67;;;9.87;;
13520;SDS011;6832;51.186;3.236;2023-04-08T12:01:51;58.27;;;10.37;;
13520;SDS011;6832;51.186;3.236;2023-04-08T12:04:18;59.87;;;14.37;;
13520;SDS011;6832;51.186;3.236;2023-04-08T12:06:45;60.83;;;13.80;;
13520;SDS011;6832;51.186;3.236;2023-04-08T12:09:12;63.40;;;13.67;;
13520;SDS011;6832;51.186;3.236;2023-04-08T12:11:39;74.50;;;15.27;;
13520;SDS011;6832;51.186;3.236;2023-04-08T12:14:06;43.53;;;12.73;;
13520;SDS011;6832;51.186;3.236;2023-04-08T12:16:35;44.37;;;11.67;;
13520;SDS011;6832;51.186;3.236;2023-04-08T12:19:02;38.17;;;11.53;;
13520;SDS011;6832;51.186;3.236;2023-04-08T12:21:28;53.40;;;12.40;;
13520;SDS011;6832;51.186;3.236;2023-04-08T12:23:59;47.53;;;11.80;;
13520;SDS011;6832;51.186;3.236;2023-04-08T12:26:26;52.97;;;12.63;;
13520;SDS011;6832;51.186;3.236;2023-04-08T12:28:53;42.60;;;11.13;;
13520;SDS011;6832;51.186;3.236;2023-04-08T12:31:20;46.93;;;11.17;;
13520;SDS011;6832;51.186;3.236;2023-04-08T12:33:48;42.57;;;10.77;;
13520;SDS011;6832;51.186;3.236;2023-04-08T12:36:15;76.27;;;14.57;;
13520;SDS011;6832;51.186;3.236;2023-04-08T12:38:42;49.13;;;12.20;;
13520;SDS011;6832;51.186;3.236;2023-04-08T12:41:09;37.37;;;10.23;;
13520;SDS011;6832;51.186;3.236;2023-04-08T12:43:36;40.67;;;11.50;;
13520;SDS011;6832;51.186;3.236;2023-04-08T12:46:03;46.90;;;11.10;;
13520;SDS011;6832;51.186;3.236;2023-04-08T12:48:30;42.57;;;11.23;;
13520;SDS011;6832;51.186;3.236;2023-04-08T12:50:58;40.03;;;10.60;;
13520;SDS011;6832;51.186;3.236;2023-04-08T12:53:25;57.03;;;11.80;;
13520;SDS011;6832;51.186;3.236;2023-04-08T12:55:52;40.60;;;10.90;;
13520;SDS011;6832;51.186;3.236;2023-04-08T12:58:21;36.10;;;10.73;;
13520;SDS011;6832;51.186;3.236;2023-04-08T13:00:49;37.33;;;10.13;;
13520;SDS011;6832;51.186;3.236;2023-04-08T13:03:16;49.43;;;11.57;;
13520;SDS011;6832;51.186;3.236;2023-04-08T13:05:42;44.33;;;11.30;;
13520;SDS011;6832;51.186;3.236;2023-04-08T13:08:11;37.20;;;10.10;;
13520;SDS011;6832;51.186;3.236;2023-04-08T13:10:38;48.53;;;11.70;;
13520;SDS011;6832;51.186;3.236;2023-04-08T13:13:05;37.63;;;11.17;;
13520;SDS011;6832;51.186;3.236;2023-04-08T13:15:32;49.50;;;10.60;;
13520;SDS011;6832;51.186;3.236;2023-04-08T13:17:59;59.83;;;12.27;;
13520;SDS011;6832;51.186;3.236;2023-04-08T13:20:26;41.33;;;11.17;;
13520;SDS011;6832;51.186;3.236;2023-04-08T13:22:53;44.47;;;11.13;;
13520;SDS011;6832;51.186;3.236;2023-04-08T13:25:21;47.80;;;12.00;;
13520;SDS011;6832;51.186;3.236;2023-04-08T13:27:48;53.40;;;11.43;;
13520;SDS011;6832;51.186;3.236;2023-04-08T13:30:15;43.60;;;10.70;;
13520;SDS011;6832;51.186;3.236;2023-04-08T13:32:42;47.33;;;11.67;;
13520;SDS011;6832;51.186;3.236;2023-04-08T13:35:09;45.63;;;11.17;;
13520;SDS011;6832;51.186;3.236;2023-04-08T13:37:36;40.70;;;11.10;;
13520;SDS011;6832;51.186;3.236;2023-04-08T13:40:03;41.10;;;10.87;;
13520;SDS011;6832;51.186;3.236;2023-04-08T13:42:34;43.70;;;11.43;;
13520;SDS011;6832;51.186;3.236;2023-04-08T13:45:01;50.17;;;11.90;;
13520;SDS011;6832;51.186;3.236;2023-04-08T13:47:29;42.30;;;11.20;;
13520;SDS011;6832;51.186;3.236;2023-04-08T13:49:56;54.10;;;11.77;;
13520;SDS011;6832;51.186;3.236;2023-04-08T13:52:23;41.97;;;10.70;;
13520;SDS011;6832;51.186;3.236;2023-04-08T13:54:51;44.03;;;11.40;;
13520;SDS011;6832;51.186;3.236;2023-04-08T13:57:18;41.63;;;11.13;;
13520;SDS011;6832;51.186;3.236;2023-04-08T13:59:46;44.50;;;11.03;;
13520;SDS011;6832;51.186;3.236;2023-04-08T14:02:13;51.53;;;12.17;;
13520;SDS011;6832;51.186;3.236;2023-04-08T14:04:43;44.87;;;11.30;;
13520;SDS011;6832;51.186;3.236;2023-04-08T14:07:10;58.27;;;12.40;;
13520;SDS011;6832;51.186;3.236;2023-04-08T14:09:37;48.53;;;11.43;;
13520;SDS011;6832;51.186;3.236;2023-04-08T14:12:05;37.33;;;10.77;;
13520;SDS011;6832;51.186;3.236;2023-04-08T14:14:32;47.53;;;11.70;;
13520;SDS011;6832;51.186;3.236;2023-04-08T14:17:00;74.60;;;14.03;;
13520;SDS011;6832;51.186;3.236;2023-04-08T14:19:27;50.87;;;11.70;;
13520;SDS011;6832;51.186;3.236;2023-04-08T14:21:54;41.07;;;11.57;;
13520;SDS011;6832;51.186;3.236;2023-04-08T14:24:21;42.67;;;11.13;;
13520;SDS011;6832;51.186;3.236;2023-04-08T14:26:48;60.43;;;12.50;;
13520;SDS011;6832;51.186;3.236;2023-04-08T14:29:15;44.80;;;10.30;;
13520;SDS011;6832;51.186;3.236;2023-04-08T14:31:42;50.30;;;11.87;;
13520;SDS011;6832;51.186;3.236;2023-04-08T14:34:10;51.30;;;11.50;;
13520;SDS011;6832;51.186;3.236;2023-04-08T14:36:37;43.53;;;9.63;;
13520;SDS011;6832;51.186;3.236;2023-04-08T14:39:04;46.33;;;11.37;;
13520;SDS011;6832;51.186;3.236;2023-04-08T14:41:31;63.10;;;13.20;;
13520;SDS011;6832;51.186;3.236;2023-04-08T14:43:58;49.83;;;11.60;;
13520;SDS011;6832;51.186;3.236;2023-04-08T14:46:25;38.80;;;10.37;;
13520;SDS011;6832;51.186;3.236;2023-04-08T14:48:52;39.53;;;10.70;;
13520;SDS011;6832;51.186;3.236;2023-04-08T14:51:20;42.77;;;11.03;;
13520;SDS011;6832;51.186;3.236;2023-04-08T14:53:49;43.80;;;11.47;;
13520;SDS011;6832;51.186;3.236;2023-04-08T14:56:16;78.17;;;13.87;;